Time;durP1;ratioP1;P1;durP2;ratioP2;P2;SDS_P1;SDS_P2;PMS_P1;PMS_P2;Temp;Humidity;BMP_temperature;BMP_pressure;BME280_temperature;BME280_humidity;BME280_pressure;Samples;Min_cycle;Max_cycle;Signal;HPM_P1;HPM_P2
2022/10/12 00:01:02;;;;;;;15.87;10.27;;;;;;;-145.23;100.00;58621.06;5021081;28;20228;-52
2022/10/12 00:03:28;;;;;;;18.50;11.43;;;;;;;-145.23;100.00;58621.06;5006915;28;20225;-52
2022/10/12 00:06:03;;;;;;;19.37;11.40;;;;;;;-145.23;100.00;58621.06;5014898;28;20228;-51
2022/10/12 00:08:29;;;;;;;19.80;11.53;;;;;;;-145.23;100.00;58621.06;5026750;28;20688;-52
2022/10/12 00:10:56;;;;;;;22.17;11.80;;;;;;;-145.23;100.00;58621.06;5013951;28;20225;-52
2022/10/12 00:13:23;;;;;;;16.60;11.33;;;;;;;-145.23;100.00;58621.06;5021810;28;20232;-53
2022/10/12 00:15:50;;;;;;;18.97;11.40;;;;;;;-145.23;100.00;58621.06;5027970;28;20228;-52
2022/10/12 00:18:16;;;;;;;21.00;11.77;;;;;;;-145.23;100.00;58621.06;5027443;28;20260;-52
2022/10/12 00:20:43;;;;;;;15.47;10.97;;;;;;;-145.23;100.00;58621.06;5015480;28;20235;-51
2022/10/12 00:23:09;;;;;;;15.43;10.57;;;;;;;-145.23;100.00;58621.06;5010605;28;20245;-51
2022/10/12 00:25:37;;;;;;;21.13;11.23;;;;;;;-145.23;100.00;58621.06;5008060;28;20228;-52
2022/10/12 00:28:04;;;;;;;16.67;10.80;;;;;;;-145.23;100.00;58621.06;5004127;28;20696;-51
2022/10/12 00:30:31;;;;;;;14.60;10.23;;;;;;;-145.23;100.00;58621.06;5000271;28;20228;-51
2022/10/12 00:32:58;;;;;;;16.40;10.23;;;;;;;-145.23;100.00;58621.06;5009076;28;20240;-51
2022/10/12 00:35:25;;;;;;;12.67;9.07;;;;;;;-145.23;100.00;58621.06;5023421;28;20235;-51
2022/10/12 00:37:53;;;;;;;14.67;8.90;;;;;;;-145.23;100.00;58621.06;5028833;28;20236;-51
2022/10/12 00:40:20;;;;;;;15.17;8.73;;;;;;;-145.23;100.00;58621.06;5025102;28;20236;-52
2022/10/12 00:42:47;;;;;;;13.57;8.40;;;;;;;-145.23;100.00;58621.06;5025659;28;20701;-50
2022/10/12 00:45:14;;;;;;;13.37;9.10;;;;;;;-145.23;100.00;58621.06;5021733;28;20233;-52
2022/10/12 00:47:44;;;;;;;14.73;9.77;;;;;;;-145.23;100.00;58621.06;5002590;28;20586;-52
2022/10/12 00:50:14;;;;;;;12.63;8.87;;;;;;;-145.23;100.00;58621.06;5018442;28;20726;-52
2022/10/12 00:52:42;;;;;;;14.13;9.33;;;;;;;-145.23;100.00;58621.06;5011945;28;20233;-52
2022/10/12 00:55:12;;;;;;;10.73;8.30;;;;;;;-145.23;100.00;58621.06;4998400;28;20230;-52
2022/10/12 00:57:39;;;;;;;12.90;8.50;;;;;;;-145.23;100.00;58621.06;5007998;28;20239;-52
2022/10/12 01:00:08;;;;;;;12.60;8.93;;;;;;;-145.23;100.00;58621.06;5020078;28;20236;-52
2022/10/12 01:02:36;;;;;;;10.27;8.10;;;;;;;-145.23;100.00;58621.06;5004331;28;20232;-52
2022/10/12 01:05:04;;;;;;;13.40;8.23;;;;;;;-145.23;100.00;58621.06;5000481;28;20325;-53
2022/10/12 01:07:31;;;;;;;11.63;8.63;;;;;;;-145.23;100.00;58621.06;5019952;28;20229;-52
2022/10/12 01:09:57;;;;;;;10.00;8.07;;;;;;;-145.23;100.00;58621.06;5027083;28;20228;-53
2022/10/12 01:12:24;;;;;;;13.33;8.83;;;;;;;-145.23;100.00;58621.06;5020049;28;20619;-51
2022/10/12 01:14:51;;;;;;;14.30;8.13;;;;;;;-145.23;100.00;58621.06;5006456;28;20233;-52
2022/10/12 01:17:26;;;;;;;9.63;6.70;;;;;;;-145.23;100.00;58621.06;4997933;28;20242;-53
2022/10/12 01:20:15;;;;;;;13.67;7.93;;;;;;;-145.23;100.00;58621.06;5011192;28;20224;-52
2022/10/12 01:22:45;;;;;;;14.13;9.20;;;;;;;-145.23;100.00;58621.06;5002116;28;20323;-52
2022/10/12 01:25:24;;;;;;;10.47;7.50;;;;;;;-145.23;100.00;58621.06;4997864;28;20734;-53
2022/10/12 01:27:52;;;;;;;11.73;6.40;;;;;;;-145.23;100.00;58621.06;5028825;28;20231;-53
2022/10/12 01:30:22;;;;;;;12.93;7.57;;;;;;;-145.23;100.00;58621.06;5029740;28;20240;-54
2022/10/12 01:33:14;;;;;;;13.37;6.93;;;;;;;-145.23;100.00;58621.06;5035278;28;20229;-50
2022/10/12 01:35:51;;;;;;;11.00;6.33;;;;;;;-145.23;100.00;58621.06;5019632;28;20631;-51
2022/10/12 01:38:26;;;;;;;8.87;6.23;;;;;;;-145.23;100.00;58621.06;5021039;28;20239;-51
2022/10/12 01:40:58;;;;;;;8.43;6.20;;;;;;;-145.23;100.00;58621.06;5031050;28;20232;-53
2022/10/12 01:43:33;;;;;;;10.70;6.13;;;;;;;-145.23;100.00;58621.06;5028080;28;20264;-53
2022/10/12 01:46:06;;;;;;;9.73;6.93;;;;;;;-145.23;100.00;58621.06;5035292;28;20234;-51
2022/10/12 01:48:32;;;;;;;11.47;6.23;;;;;;;-145.23;100.00;58621.06;5044316;28;20232;-51
2022/10/12 01:51:02;;;;;;;10.43;6.53;;;;;;;-145.23;100.00;58621.06;5032186;28;20231;-52
2022/10/12 01:53:33;;;;;;;12.07;6.73;;;;;;;-145.23;100.00;58621.06;5040422;28;20244;-51
2022/10/12 01:56:04;;;;;;;12.30;7.20;;;;;;;-145.23;100.00;58621.06;5038845;28;20238;-51
2022/10/12 01:58:39;;;;;;;9.80;7.03;;;;;;;-145.23;100.00;58621.06;5018140;28;20802;-51
2022/10/12 02:01:16;;;;;;;10.70;6.70;;;;;;;-145.23;100.00;58621.06;5025405;28;20230;-52
2022/10/12 02:03:46;;;;;;;9.00;5.97;;;;;;;-145.23;100.00;58621.06;5025577;28;20228;-52
2022/10/12 02:06:17;;;;;;;10.23;5.70;;;;;;;-145.23;100.00;58621.06;5013949;28;20334;-52
2022/10/12 02:08:48;;;;;;;11.20;6.30;;;;;;;-145.23;100.00;58621.06;5021102;28;20236;-51
2022/10/12 02:11:17;;;;;;;8.53;6.03;;;;;;;-145.23;100.00;58621.06;5006835;28;20312;-53
2022/10/12 02:13:48;;;;;;;11.13;6.37;;;;;;;-145.23;100.00;58621.06;5009003;28;20237;-52
2022/10/12 02:16:19;;;;;;;10.13;6.40;;;;;;;-145.23;100.00;58621.06;4996952;28;20257;-53
2022/10/12 02:18:48;;;;;;;10.30;6.57;;;;;;;-145.23;100.00;58621.06;5006133;28;20222;-52
2022/10/12 02:21:18;;;;;;;9.17;6.53;;;;;;;-145.23;100.00;58621.06;5025158;28;20236;-53
2022/10/12 02:23:46;;;;;;;10.83;6.77;;;;;;;-145.23;100.00;58621.06;5029406;28;20231;-53
2022/10/12 02:26:13;;;;;;;7.33;6.07;;;;;;;-145.23;100.00;58621.06;5028775;28;20691;-52
2022/10/12 02:28:39;;;;;;;12.73;6.40;;;;;;;-145.23;100.00;58621.06;5019608;28;20739;-52
2022/10/12 02:31:10;;;;;;;9.23;5.80;;;;;;;-145.23;100.00;58621.06;5023343;28;20232;-52
2022/10/12 02:33:42;;;;;;;10.03;5.77;;;;;;;-145.23;100.00;58621.06;5034049;28;20240;-52
2022/10/12 02:36:10;;;;;;;13.40;7.10;;;;;;;-145.23;100.00;58621.06;5016848;28;20627;-51
2022/10/12 02:38:41;;;;;;;7.60;6.00;;;;;;;-145.23;100.00;58621.06;5006162;28;20225;-52
2022/10/12 02:41:10;;;;;;;9.07;6.30;;;;;;;-145.23;100.00;58621.06;5009366;28;20237;-52
2022/10/12 02:43:39;;;;;;;7.67;5.17;;;;;;;-145.23;100.00;58621.06;5011757;28;20235;-52
2022/10/12 02:46:08;;;;;;;7.77;5.97;;;;;;;-145.23;100.00;58621.06;5020122;28;20777;-52
2022/10/12 02:48:35;;;;;;;9.57;6.33;;;;;;;-145.23;100.00;58621.06;5031467;28;20223;-52
2022/10/12 02:51:04;;;;;;;7.87;5.27;;;;;;;-145.23;100.00;58621.06;5032186;28;20228;-51
2022/10/12 02:53:31;;;;;;;10.43;5.73;;;;;;;-145.23;100.00;58621.06;5035934;28;20811;-53
2022/10/12 02:56:01;;;;;;;8.60;5.53;;;;;;;-145.23;100.00;58621.06;5032627;28;20228;-53
2022/10/12 02:58:28;;;;;;;7.67;5.77;;;;;;;-145.23;100.00;58621.06;5011917;28;20319;-51
2022/10/12 03:00:55;;;;;;;13.50;5.77;;;;;;;-145.23;100.00;58621.06;5006924;28;20618;-52
2022/10/12 03:03:22;;;;;;;9.37;4.97;;;;;;;-145.23;100.00;58621.06;5008112;28;20477;-52
2022/10/12 03:05:48;;;;;;;7.77;4.57;;;;;;;-145.23;100.00;58621.06;5006760;28;21394;-52
2022/10/12 03:08:17;;;;;;;8.87;4.80;;;;;;;-145.23;100.00;58621.06;5014594;28;20761;-52
2022/10/12 03:10:44;;;;;;;7.63;4.17;;;;;;;-145.23;100.00;58621.06;5009421;28;20310;-53
2022/10/12 03:13:11;;;;;;;8.03;5.93;;;;;;;-145.23;100.00;58621.06;5006770;28;20224;-53
2022/10/12 03:15:38;;;;;;;8.37;5.83;;;;;;;-145.23;100.00;58621.06;5010959;28;20229;-52
2022/10/12 03:18:07;;;;;;;9.57;6.30;;;;;;;-145.23;100.00;58621.06;4998201;28;20228;-53
2022/10/12 03:20:34;;;;;;;6.83;5.17;;;;;;;-145.23;100.00;58621.06;5018145;28;20233;-52
2022/10/12 03:23:01;;;;;;;11.00;5.40;;;;;;;-145.23;100.00;58621.06;5012841;28;20257;-53
2022/10/12 03:25:29;;;;;;;8.47;5.90;;;;;;;-145.23;100.00;58621.06;5015069;28;20241;-52
2022/10/12 03:27:56;;;;;;;9.47;6.00;;;;;;;-145.23;100.00;58621.06;5024096;28;20264;-52
2022/10/12 03:30:23;;;;;;;11.37;6.20;;;;;;;-145.23;100.00;58621.06;5028191;28;20241;-52
2022/10/12 03:32:50;;;;;;;7.17;5.27;;;;;;;-145.23;100.00;58621.06;5024670;28;20893;-53
2022/10/12 03:35:17;;;;;;;10.60;5.83;;;;;;;-145.23;100.00;58621.06;5031163;28;20654;-52
2022/10/12 03:37:44;;;;;;;11.60;5.37;;;;;;;-145.23;100.00;58621.06;5020551;28;20235;-52
2022/10/12 03:40:12;;;;;;;7.27;5.53;;;;;;;-145.23;100.00;58621.06;5028882;28;20244;-51
2022/10/12 03:42:40;;;;;;;10.97;6.30;;;;;;;-145.23;100.00;58621.06;5034009;28;20654;-52
2022/10/12 03:45:11;;;;;;;10.53;6.10;;;;;;;-145.23;100.00;58621.06;5018206;28;20248;-53
2022/10/12 03:47:38;;;;;;;13.80;6.20;;;;;;;-145.23;100.00;58621.06;5025375;28;20327;-53
2022/10/12 03:50:06;;;;;;;11.63;5.83;;;;;;;-145.23;100.00;58621.06;5014594;28;20244;-53
2022/10/12 03:52:32;;;;;;;9.10;5.53;;;;;;;-145.23;100.00;58621.06;5026797;28;20228;-52
2022/10/12 03:55:02;;;;;;;11.00;6.27;;;;;;;-145.23;100.00;58621.06;5028510;28;20327;-51
2022/10/12 03:57:29;;;;;;;10.30;4.87;;;;;;;-145.23;100.00;58621.06;5022070;28;20707;-52
2022/10/12 03:59:57;;;;;;;7.80;6.10;;;;;;;-145.23;100.00;58621.06;5022419;28;20232;-51
2022/10/12 04:02:25;;;;;;;9.23;6.30;;;;;;;-145.23;100.00;58621.06;5020341;28;20231;-52
2022/10/12 04:04:52;;;;;;;10.33;5.40;;;;;;;-145.23;100.00;58621.06;5013741;28;20240;-52
2022/10/12 04:07:19;;;;;;;8.50;5.70;;;;;;;-145.23;100.00;58621.06;5010956;28;20244;-54
2022/10/12 04:09:46;;;;;;;11.10;6.90;;;;;;;-145.23;100.00;58621.06;5025507;28;20224;-52
2022/10/12 04:12:13;;;;;;;10.50;6.73;;;;;;;-145.23;100.00;58621.06;5014239;28;20232;-50
2022/10/12 04:14:40;;;;;;;7.40;5.97;;;;;;;-145.23;100.00;58621.06;5014548;28;20297;-51
2022/10/12 04:17:09;;;;;;;11.70;6.33;;;;;;;-145.23;100.00;58621.06;5017935;28;20251;-51
2022/10/12 04:19:36;;;;;;;10.10;6.90;;;;;;;-145.23;100.00;58621.06;5027927;28;20224;-52
2022/10/12 04:22:03;;;;;;;10.70;7.67;;;;;;;-145.23;100.00;58621.06;5023111;28;20475;-51
2022/10/12 04:24:30;;;;;;;11.90;6.90;;;;;;;-145.23;100.00;58621.06;5017970;28;20602;-51
2022/10/12 04:26:56;;;;;;;13.70;6.87;;;;;;;-145.23;100.00;58621.06;5014055;28;20244;-52
2022/10/12 04:29:23;;;;;;;16.63;7.53;;;;;;;-145.23;100.00;58621.06;5012256;28;20244;-52
2022/10/12 04:31:50;;;;;;;9.77;6.90;;;;;;;-145.23;100.00;58621.06;5007299;28;20723;-52
2022/10/12 04:34:19;;;;;;;10.03;6.93;;;;;;;-145.23;100.00;58621.06;5006026;28;20252;-51
2022/10/12 04:36:46;;;;;;;10.40;7.40;;;;;;;-145.23;100.00;58621.06;5036166;28;20342;-52
2022/10/12 04:39:13;;;;;;;9.73;6.70;;;;;;;-145.23;100.00;58621.06;5021689;28;20673;-52
2022/10/12 04:41:40;;;;;;;10.83;7.07;;;;;;;-145.23;100.00;58621.06;5025816;28;20241;-52
2022/10/12 04:44:07;;;;;;;9.77;6.77;;;;;;;-145.23;100.00;58621.06;5025318;28;20733;-51
2022/10/12 04:46:35;;;;;;;11.00;6.93;;;;;;;-145.23;100.00;58621.06;5018365;28;20229;-52
2022/10/12 04:49:01;;;;;;;14.07;7.27;;;;;;;-145.23;100.00;58621.06;5029053;28;20224;-52
2022/10/12 04:51:30;;;;;;;16.20;8.30;;;;;;;-145.23;100.00;58621.06;5015429;28;20327;-52
2022/10/12 04:53:57;;;;;;;8.83;6.33;;;;;;;-145.23;100.00;58621.06;5025490;28;20268;-52
2022/10/12 04:56:24;;;;;;;12.50;7.13;;;;;;;-145.23;100.00;58621.06;5026470;28;20237;-53
2022/10/12 04:58:51;;;;;;;12.83;7.53;;;;;;;-145.23;100.00;58621.06;5016037;28;20311;-53
2022/10/12 05:01:18;;;;;;;11.53;8.07;;;;;;;-145.23;100.00;58621.06;5015494;28;20241;-52
2022/10/12 05:03:45;;;;;;;10.50;6.40;;;;;;;-145.23;100.00;58621.06;5004355;28;20232;-53
2022/10/12 05:06:12;;;;;;;10.93;7.10;;;;;;;-145.23;100.00;58621.06;5019177;28;20256;-53
2022/10/12 05:08:40;;;;;;;9.60;6.70;;;;;;;-145.23;100.00;58621.06;5021877;28;20232;-52
2022/10/12 05:11:08;;;;;;;9.53;6.70;;;;;;;-145.23;100.00;58621.06;5021315;28;20245;-53
2022/10/12 05:13:37;;;;;;;10.80;7.13;;;;;;;-145.23;100.00;58621.06;5019582;28;20229;-52
2022/10/12 05:16:04;;;;;;;10.67;7.03;;;;;;;-145.23;100.00;58621.06;5021701;28;20231;-52
2022/10/12 05:18:31;;;;;;;11.93;7.67;;;;;;;-145.23;100.00;58621.06;5007845;28;20233;-52
2022/10/12 05:20:58;;;;;;;14.37;7.07;;;;;;;-145.23;100.00;58621.06;5008134;28;20650;-52
2022/10/12 05:23:25;;;;;;;8.93;6.43;;;;;;;-145.23;100.00;58621.06;5005585;28;20287;-52
2022/10/12 05:25:55;;;;;;;13.63;6.83;;;;;;;-145.23;100.00;58621.06;5010417;28;20241;-52
2022/10/12 05:28:23;;;;;;;13.83;8.53;;;;;;;-145.23;100.00;58621.06;5007168;28;20233;-52
2022/10/12 05:30:52;;;;;;;12.77;8.83;;;;;;;-145.23;100.00;58621.06;5006895;28;20256;-54
2022/10/12 05:33:19;;;;;;;10.90;7.87;;;;;;;-145.23;100.00;58621.06;5029677;28;20232;-52
2022/10/12 05:35:48;;;;;;;14.33;9.13;;;;;;;-145.23;100.00;58621.06;5014683;28;20674;-52
2022/10/12 05:38:15;;;;;;;11.17;7.87;;;;;;;-145.23;100.00;58621.06;5021529;28;20239;-52
2022/10/12 05:40:42;;;;;;;11.13;7.87;;;;;;;-145.23;100.00;58621.06;5026272;28;20259;-52
2022/10/12 05:43:10;;;;;;;13.07;7.23;;;;;;;-145.23;100.00;58621.06;5012977;28;20264;-52
2022/10/12 05:45:38;;;;;;;13.50;7.07;;;;;;;-145.23;100.00;58621.06;5012543;28;20236;-52
2022/10/12 05:48:06;;;;;;;9.53;6.60;;;;;;;-145.23;100.00;58621.06;5011187;28;20328;-53
2022/10/12 05:50:33;;;;;;;11.90;6.90;;;;;;;-145.23;100.00;58621.06;5003019;28;20240;-52
2022/10/12 05:52:59;;;;;;;12.33;6.30;;;;;;;-145.23;100.00;58621.06;5030226;28;20232;-52
2022/10/12 05:55:26;;;;;;;6.70;5.70;;;;;;;-145.23;100.00;58621.06;5019025;28;20249;-53
2022/10/12 05:57:53;;;;;;;9.77;6.63;;;;;;;-145.23;100.00;58621.06;5021286;28;20232;-52
2022/10/12 06:00:22;;;;;;;10.80;6.60;;;;;;;-145.23;100.00;58621.06;5008649;28;20701;-53
2022/10/12 06:02:49;;;;;;;9.90;7.10;;;;;;;-145.23;100.00;58621.06;5002484;28;20308;-52
2022/10/12 06:05:16;;;;;;;7.83;5.93;;;;;;;-145.23;100.00;58621.06;5011665;28;20801;-52
2022/10/12 06:07:43;;;;;;;11.00;6.63;;;;;;;-145.23;100.00;58621.06;5014034;28;20229;-53
2022/10/12 06:10:10;;;;;;;13.20;8.00;;;;;;;-145.23;100.00;58621.06;5013753;28;26218;-53
2022/10/12 06:12:37;;;;;;;13.30;7.37;;;;;;;-145.23;100.00;58621.06;5017090;28;20278;-53
2022/10/12 06:15:05;;;;;;;9.70;6.40;;;;;;;-145.23;100.00;58621.06;5028675;28;20745;-51
2022/10/12 06:17:33;;;;;;;10.17;6.90;;;;;;;-145.23;100.00;58621.06;5028168;28;20702;-51
2022/10/12 06:20:00;;;;;;;10.00;6.63;;;;;;;-145.23;100.00;58621.06;5020020;28;20229;-51
2022/10/12 06:22:27;;;;;;;11.70;7.00;;;;;;;-145.23;100.00;58621.06;5026609;28;20227;-52
2022/10/12 06:24:54;;;;;;;11.03;6.47;;;;;;;-145.23;100.00;58621.06;5024984;28;20259;-51
2022/10/12 06:27:21;;;;;;;10.87;6.47;;;;;;;-145.23;100.00;58621.06;5014830;28;20229;-52
2022/10/12 06:29:48;;;;;;;8.60;7.20;;;;;;;-145.23;100.00;58621.06;5019156;28;20268;-52
2022/10/12 06:32:15;;;;;;;11.17;7.00;;;;;;;-145.23;100.00;58621.06;5026389;28;20898;-52
2022/10/12 06:34:44;;;;;;;12.77;8.07;;;;;;;-145.23;100.00;58621.06;5017870;28;20237;-52
2022/10/12 06:37:11;;;;;;;12.33;7.23;;;;;;;-145.23;100.00;58621.06;5028882;28;20236;-51
2022/10/12 06:39:37;;;;;;;15.47;7.67;;;;;;;-145.23;100.00;58621.06;5017590;28;20312;-52
2022/10/12 06:42:04;;;;;;;10.37;7.20;;;;;;;-145.23;100.00;58621.06;5024084;28;20279;-54
2022/10/12 06:44:31;;;;;;;10.73;7.67;;;;;;;-145.23;100.00;58621.06;5020160;28;20307;-52
2022/10/12 06:46:58;;;;;;;7.53;6.80;;;;;;;-145.23;100.00;58621.06;5007509;28;20241;-53
2022/10/12 06:49:25;;;;;;;15.07;7.43;;;;;;;-145.23;100.00;58621.06;5012041;28;20240;-52
2022/10/12 06:51:54;;;;;;;8.53;6.63;;;;;;;-145.23;100.00;58621.06;5023308;28;20245;-53
2022/10/12 06:54:20;;;;;;;9.73;6.37;;;;;;;-145.23;100.00;58621.06;5037588;28;20366;-52
2022/10/12 06:56:47;;;;;;;6.53;5.50;;;;;;;-145.23;100.00;58621.06;5027366;28;20642;-52
2022/10/12 06:59:14;;;;;;;10.33;6.57;;;;;;;-145.23;100.00;58621.06;5021438;28;20293;-51
2022/10/12 07:01:41;;;;;;;11.97;6.67;;;;;;;-145.23;100.00;58621.06;5025923;28;20294;-51
2022/10/12 07:04:07;;;;;;;10.07;6.17;;;;;;;-145.23;100.00;58621.06;5022229;28;21588;-52
2022/10/12 07:06:34;;;;;;;12.10;5.53;;;;;;;-145.23;100.00;58621.06;5026610;28;20252;-54
2022/10/12 07:09:03;;;;;;;9.50;6.13;;;;;;;-145.23;100.00;58621.06;5019698;28;20244;-52
2022/10/12 07:11:29;;;;;;;6.27;5.33;;;;;;;-145.23;100.00;58621.06;5018049;28;20236;-52
2022/10/12 07:13:57;;;;;;;8.87;5.17;;;;;;;-145.23;100.00;58621.06;5020935;28;20801;-52
2022/10/12 07:16:24;;;;;;;8.03;5.73;;;;;;;-145.23;100.00;58621.06;5040102;28;20232;-52
2022/10/12 07:18:51;;;;;;;11.87;6.60;;;;;;;-145.23;100.00;58621.06;5026223;28;20346;-54
2022/10/12 07:21:17;;;;;;;10.87;5.03;;;;;;;-145.23;100.00;58621.06;5024281;28;20229;-52
2022/10/12 07:23:44;;;;;;;7.77;5.83;;;;;;;-145.23;100.00;58621.06;5022024;28;20232;-51
2022/10/12 07:26:12;;;;;;;6.57;5.13;;;;;;;-145.23;100.00;58621.06;5019163;28;20236;-52
2022/10/12 07:28:39;;;;;;;7.77;4.23;;;;;;;-145.23;100.00;58621.06;5041997;28;20239;-52
2022/10/12 07:31:08;;;;;;;6.53;4.43;;;;;;;-145.23;100.00;58621.06;5028983;28;20610;-53
2022/10/12 07:33:37;;;;;;;7.13;4.90;;;;;;;-145.23;100.00;58621.06;5040273;28;20787;-51
2022/10/12 07:36:05;;;;;;;9.70;5.07;;;;;;;-145.23;100.00;58621.06;5019193;28;20236;-52
2022/10/12 07:38:32;;;;;;;10.00;4.90;;;;;;;-145.23;100.00;58621.06;5028267;28;20302;-52
2022/10/12 07:41:00;;;;;;;11.33;5.67;;;;;;;-145.23;100.00;58621.06;5034833;28;20229;-51
2022/10/12 07:43:30;;;;;;;9.97;5.03;;;;;;;-145.23;100.00;58621.06;5021629;28;20238;-51
2022/10/12 07:45:56;;;;;;;14.10;5.33;;;;;;;-145.23;100.00;58621.06;5034358;28;20232;-52
2022/10/12 07:48:23;;;;;;;7.10;5.30;;;;;;;-145.23;100.00;58621.06;5028401;28;20255;-52
2022/10/12 07:50:50;;;;;;;12.20;6.33;;;;;;;-145.23;100.00;58621.06;5013750;28;20256;-52
2022/10/12 07:53:17;;;;;;;7.73;4.90;;;;;;;-145.23;100.00;58621.06;5006856;28;20681;-53
2022/10/12 07:55:44;;;;;;;11.07;4.70;;;;;;;-145.23;100.00;58621.06;5012282;28;20233;-51
2022/10/12 07:58:11;;;;;;;11.97;6.13;;;;;;;-145.23;100.00;58621.06;5020682;28;20247;-51
2022/10/12 08:00:40;;;;;;;10.10;5.33;;;;;;;-145.23;100.00;58621.06;5025510;28;20233;-51
2022/10/12 08:03:06;;;;;;;13.63;5.47;;;;;;;-145.23;100.00;58621.06;5016417;28;20236;-51
2022/10/12 08:05:34;;;;;;;13.43;5.03;;;;;;;-145.23;100.00;58621.06;5010844;28;20283;-51
2022/10/12 08:08:01;;;;;;;13.30;5.33;;;;;;;-145.23;100.00;58621.06;5028446;28;20255;-51
2022/10/12 08:10:28;;;;;;;7.87;5.80;;;;;;;-145.23;100.00;58621.06;5019289;28;20263;-52
2022/10/12 08:12:55;;;;;;;11.60;5.57;;;;;;;-145.23;100.00;58621.06;5012428;28;20225;-52
2022/10/12 08:15:22;;;;;;;12.63;5.37;;;;;;;-145.23;100.00;58621.06;5011721;28;20295;-52
2022/10/12 08:17:50;;;;;;;10.27;5.53;;;;;;;-145.23;100.00;58621.06;5004822;28;20621;-52
2022/10/12 08:20:17;;;;;;;7.57;4.28;;;;;;;-145.23;100.00;58621.06;5021019;28;20235;-52
2022/10/12 08:22:44;;;;;;;12.57;4.95;;;;;;;-145.23;100.00;58621.06;5022710;28;20231;-52
2022/10/12 08:25:10;;;;;;;8.40;4.30;;;;;;;-145.23;100.00;58621.06;5006656;28;20483;-50
2022/10/12 08:27:38;;;;;;;6.63;4.15;;;;;;;-145.23;100.00;58621.06;5015715;28;20234;-53
2022/10/12 08:30:05;;;;;;;11.17;4.73;;;;;;;-145.23;100.00;58621.06;5003288;28;20229;-51
2022/10/12 08:32:32;;;;;;;8.93;4.67;;;;;;;-145.23;100.00;58621.06;5011215;28;20384;-53
2022/10/12 08:35:01;;;;;;;17.58;5.43;;;;;;;-145.23;100.00;58621.06;5007053;28;20684;-52
2022/10/12 08:37:29;;;;;;;15.48;5.13;;;;;;;-145.23;100.00;58621.06;4999397;28;20244;-53
2022/10/12 08:39:56;;;;;;;7.72;3.92;;;;;;;-145.23;100.00;58621.06;5008140;28;20232;-52
2022/10/12 08:42:34;;;;;;;9.00;3.58;;;;;;;-145.23;100.00;58621.06;5024888;28;20315;-53
2022/10/12 08:45:19;;;;;;;6.43;3.65;;;;;;;-145.23;100.00;58621.06;5018727;28;20962;-52
2022/10/12 08:47:50;;;;;;;8.82;3.65;;;;;;;-145.23;100.00;58621.06;5029025;28;20270;-52
2022/10/12 08:50:23;;;;;;;9.57;3.85;;;;;;;-145.23;100.00;58621.06;5044291;28;20312;-53
2022/10/12 08:52:53;;;;;;;7.90;3.63;;;;;;;-145.23;100.00;58621.06;5021021;28;20226;-53
2022/10/12 08:55:35;;;;;;;11.77;3.72;;;;;;;-145.23;100.00;58621.06;5015750;28;20784;-52
2022/10/12 08:58:02;;;;;;;6.85;3.70;;;;;;;-145.23;100.00;58621.06;5021541;28;20281;-50
2022/10/12 09:00:30;;;;;;;7.63;3.53;;;;;;;-145.23;100.00;58621.06;5017406;28;20236;-52
2022/10/12 09:03:07;;;;;;;7.32;3.35;;;;;;;-145.23;100.00;58621.06;5015864;28;20240;-52
2022/10/12 09:05:41;;;;;;;8.57;3.58;;;;;;;-145.23;100.00;58621.06;5021916;28;20244;-51
2022/10/12 09:08:15;;;;;;;9.77;3.00;;;;;;;-145.23;100.00;58621.06;5046547;28;20241;-52
2022/10/12 09:10:48;;;;;;;12.00;4.38;;;;;;;-145.23;100.00;58621.06;5019658;28;20239;-51
2022/10/12 09:13:26;;;;;;;13.95;4.03;;;;;;;-145.23;100.00;58621.06;5014998;28;20229;-51
2022/10/12 09:15:57;;;;;;;6.82;3.47;;;;;;;-145.23;100.00;58621.06;4991526;28;20650;-51
2022/10/12 09:18:32;;;;;;;4.68;2.95;;;;;;;-145.23;100.00;58621.06;5024990;28;20239;-52
2022/10/12 09:21:01;;;;;;;4.88;2.88;;;;;;;-145.23;100.00;58621.06;5038069;28;20220;-51
2022/10/12 09:23:31;;;;;;;7.07;2.70;;;;;;;-145.23;100.00;58621.06;5034108;28;20327;-54
2022/10/12 09:26:05;;;;;;;8.18;4.18;;;;;;;-145.23;100.00;58621.06;5014822;28;20225;-52
2022/10/12 09:28:36;;;;;;;7.90;2.95;;;;;;;-145.23;100.00;58621.06;5003878;28;20239;-51
2022/10/12 09:31:17;;;;;;;7.68;3.58;;;;;;;-145.23;100.00;58621.06;4989960;28;21017;-52
2022/10/12 09:33:48;;;;;;;5.03;2.53;;;;;;;-145.23;100.00;58621.06;5001237;28;20240;-51
2022/10/12 09:36:20;;;;;;;6.20;3.20;;;;;;;-145.23;100.00;58621.06;5035094;28;20228;-51
2022/10/12 09:38:46;;;;;;;4.57;2.75;;;;;;;-145.23;100.00;58621.06;5006021;28;20240;-51
2022/10/12 09:41:17;;;;;;;11.73;3.60;;;;;;;-145.23;100.00;58621.06;5011218;28;20233;-51
2022/10/12 09:43:44;;;;;;;8.45;3.65;;;;;;;-145.23;100.00;58621.06;5005579;28;20242;-51
2022/10/12 09:46:13;;;;;;;6.18;2.78;;;;;;;-145.23;100.00;58621.06;4995895;28;20233;-51
2022/10/12 09:48:56;;;;;;;5.82;2.95;;;;;;;-145.23;100.00;58621.06;5001694;28;20236;-52
2022/10/12 09:51:24;;;;;;;5.35;2.90;;;;;;;-145.23;100.00;58621.06;5019284;28;20233;-52
2022/10/12 09:53:51;;;;;;;10.25;2.45;;;;;;;-145.23;100.00;58621.06;5016334;28;20630;-51
2022/10/12 09:56:23;;;;;;;7.80;2.58;;;;;;;-145.23;100.00;58621.06;5020766;28;20224;-51
2022/10/12 09:58:51;;;;;;;5.18;2.35;;;;;;;-145.23;100.00;58621.06;5012958;28;20218;-51
2022/10/12 10:01:23;;;;;;;6.68;2.65;;;;;;;-145.23;100.00;58621.06;5020494;28;20224;-52
2022/10/12 10:04:07;;;;;;;5.97;2.58;;;;;;;-145.23;100.00;58621.06;5015002;28;20233;-53
2022/10/12 10:06:38;;;;;;;9.40;3.05;;;;;;;-145.23;100.00;58621.06;5027048;28;20271;-52
2022/10/12 10:09:04;;;;;;;4.47;2.08;;;;;;;-145.23;100.00;58621.06;5042498;28;20231;-53
2022/10/12 10:11:31;;;;;;;9.45;3.03;;;;;;;-145.23;100.00;58621.06;5028870;28;20738;-51
2022/10/12 10:13:58;;;;;;;5.82;2.15;;;;;;;-145.23;100.00;58621.06;5030862;28;20876;-51
2022/10/12 10:16:26;;;;;;;4.55;1.75;;;;;;;-145.23;100.00;58621.06;5035630;28;20732;-51
2022/10/12 10:18:57;;;;;;;5.40;2.75;;;;;;;-145.23;100.00;58621.06;5038559;28;20236;-53
2022/10/12 10:21:27;;;;;;;6.97;2.03;;;;;;;-145.23;100.00;58621.06;5013647;28;20233;-52
2022/10/12 10:23:56;;;;;;;8.32;2.13;;;;;;;-145.23;100.00;58621.06;5012477;28;20240;-51
2022/10/12 10:26:24;;;;;;;5.18;1.83;;;;;;;-145.23;100.00;58621.06;4999620;28;20233;-53
2022/10/12 10:28:56;;;;;;;11.10;3.05;;;;;;;-145.23;100.00;58621.06;5025518;28;20235;-52
2022/10/12 10:31:26;;;;;;;5.22;1.90;;;;;;;-145.23;100.00;58621.06;5017439;28;20940;-51
2022/10/12 10:34:13;;;;;;;6.22;2.65;;;;;;;-145.23;100.00;58621.06;5013993;28;20327;-55
2022/10/12 10:36:46;;;;;;;4.63;2.38;;;;;;;-145.23;100.00;58621.06;5017072;28;20240;-52
2022/10/12 10:39:22;;;;;;;7.85;2.28;;;;;;;-145.23;100.00;58621.06;5017008;28;20232;-52
2022/10/12 10:41:49;;;;;;;7.32;2.05;;;;;;;-145.23;100.00;58621.06;5028634;28;20216;-51
2022/10/12 10:44:31;;;;;;;9.65;2.05;;;;;;;-145.23;100.00;58621.06;5026965;28;20745;-52
2022/10/12 10:47:01;;;;;;;8.82;2.30;;;;;;;-145.23;100.00;58621.06;5036294;28;20594;-53
2022/10/12 10:49:36;;;;;;;4.05;1.42;;;;;;;-145.23;100.00;58621.06;5035330;28;20518;-52
2022/10/12 10:52:04;;;;;;;5.03;1.65;;;;;;;-145.23;100.00;58621.06;5017838;28;20236;-52
2022/10/12 10:54:33;;;;;;;4.18;1.38;;;;;;;-145.23;100.00;58621.06;5018707;28;20234;-52
2022/10/12 10:57:03;;;;;;;5.82;2.25;;;;;;;-145.23;100.00;58621.06;5014933;28;20239;-52
2022/10/12 10:59:38;;;;;;;5.05;1.50;;;;;;;-145.23;100.00;58621.06;5009238;28;20233;-52
2022/10/12 11:02:15;;;;;;;6.45;2.42;;;;;;;-145.23;100.00;58621.06;5015601;28;20228;-52
2022/10/12 11:04:44;;;;;;;11.18;2.28;;;;;;;-145.23;100.00;58621.06;5011658;28;20730;-51
2022/10/12 11:07:17;;;;;;;5.22;2.10;;;;;;;-145.23;100.00;58621.06;5010989;28;20232;-51
2022/10/12 11:09:47;;;;;;;5.03;1.40;;;;;;;-145.23;100.00;58621.06;5022561;28;20619;-51
2022/10/12 11:12:16;;;;;;;5.05;2.08;;;;;;;-145.23;100.00;58621.06;5014884;28;20737;-52